Terminal Aerodrome Forecast
Issued by NWS

Home | Current Version | Previous Version | Graphics & Text | Print | Product List | Glossary On
Versions: 1 2 3 4 5 6 7 8 9 10 11 12 13
000
FTUS43 KMPX 301120
TAFAXN
TAF
KAXN 301120Z 3012/0112 16004KT P6SM SKC
     FM301700 15011G18KT P6SM FEW250
     FM010200 16010KT P6SM BKN150
     FM010800 19008KT P6SM -RA SCT050 OVC070=

USA.gov is the U.S. government's official web portal to all federal, state and local government web resources and services.